createdAt,value
2022-11-02T00:00:20.860Z,12.73
2022-11-02T00:02:47.168Z,15.23
2022-11-02T00:05:14.119Z,17.17
2022-11-02T00:07:43.471Z,15.88
2022-11-02T00:10:10.276Z,17.08
2022-11-02T00:12:36.930Z,11.93
2022-11-02T00:15:03.668Z,12.27
2022-11-02T00:17:30.335Z,14.32
2022-11-02T00:19:56.762Z,12.23
2022-11-02T00:22:23.238Z,9.50
2022-11-02T00:24:49.517Z,12.98
2022-11-02T00:27:15.833Z,17.25
2022-11-02T00:29:42.096Z,17.00
2022-11-02T00:32:08.398Z,12.85
2022-11-02T00:34:34.665Z,16.85
2022-11-02T00:37:00.958Z,12.50
2022-11-02T00:39:27.224Z,14.23
2022-11-02T00:41:53.551Z,11.13
2022-11-02T00:44:19.840Z,13.07
2022-11-02T00:46:46.340Z,12.25
2022-11-02T00:49:12.658Z,8.48
2022-11-02T00:51:39.005Z,12.55
2022-11-02T00:54:05.344Z,19.40
2022-11-02T00:56:33.097Z,11.85
2022-11-02T00:59:02.100Z,11.77
2022-11-02T01:01:28.487Z,14.15
2022-11-02T01:03:56.127Z,13.65
2022-11-02T01:06:22.498Z,16.27
2022-11-02T01:08:48.882Z,10.90
2022-11-02T01:11:18.699Z,13.70
2022-11-02T01:13:45.279Z,10.15
2022-11-02T01:16:12.351Z,8.05
2022-11-02T01:18:39.265Z,14.52
2022-11-02T01:21:06.108Z,15.25
2022-11-02T01:23:33.635Z,14.43
2022-11-02T01:26:09.973Z,11.00
2022-11-02T01:28:36.667Z,9.90
2022-11-02T01:31:03.113Z,11.40
2022-11-02T01:33:29.532Z,9.55
2022-11-02T01:35:55.844Z,14.85
2022-11-02T01:38:22.979Z,12.10
2022-11-02T01:40:49.278Z,9.65
2022-11-02T01:43:26.600Z,17.17
2022-11-02T01:45:59.688Z,11.00
2022-11-02T01:48:36.604Z,10.13
2022-11-02T01:51:05.695Z,12.30
2022-11-02T01:53:33.607Z,11.60
2022-11-02T01:56:00.947Z,15.25
2022-11-02T01:58:27.472Z,13.63
2022-11-02T02:00:54.751Z,14.77
2022-11-02T02:03:21.330Z,9.07
2022-11-02T02:05:57.758Z,12.15
2022-11-02T02:08:25.054Z,10.10
2022-11-02T02:10:51.324Z,13.20
2022-11-02T02:13:18.583Z,7.63
2022-11-02T02:16:05.394Z,17.80
2022-11-02T02:18:31.664Z,14.70
2022-11-02T02:21:02.448Z,12.93
2022-11-02T02:23:51.618Z,9.70
2022-11-02T02:26:31.136Z,15.70
2022-11-02T02:29:02.779Z,10.32
2022-11-02T02:31:44.773Z,9.63
2022-11-02T02:34:17.091Z,15.95
2022-11-02T02:36:49.809Z,9.43
2022-11-02T02:39:19.647Z,16.63
2022-11-02T02:41:54.752Z,17.95
2022-11-02T02:44:22.855Z,11.48
2022-11-02T02:46:57.478Z,14.35
2022-11-02T02:49:33.477Z,10.43
2022-11-02T02:52:01.654Z,12.60
2022-11-02T02:54:39.382Z,14.57
2022-11-02T02:57:10.808Z,12.93
2022-11-02T02:59:44.056Z,13.40
2022-11-02T03:02:16.085Z,14.15
2022-11-02T03:04:42.555Z,15.43
2022-11-02T03:07:11.264Z,18.00
2022-11-02T03:09:43.927Z,14.02
2022-11-02T03:12:16.769Z,9.75
2022-11-02T03:14:52.994Z,17.73
2022-11-02T03:17:32.386Z,12.52
2022-11-02T03:20:04.689Z,21.40
2022-11-02T03:22:39.161Z,14.10
2022-11-02T03:25:18.249Z,17.80
2022-11-02T03:27:56.603Z,12.77
2022-11-02T03:30:23.935Z,16.08
2022-11-02T03:33:02.393Z,13.48
2022-11-02T03:35:35.263Z,16.05
2022-11-02T03:38:05.230Z,12.30
2022-11-02T03:40:35.319Z,14.18
2022-11-02T03:43:03.987Z,14.18
2022-11-02T03:45:35.411Z,19.10
2022-11-02T03:48:04.338Z,11.20
2022-11-02T03:50:32.570Z,14.13
2022-11-02T03:53:06.417Z,12.23
2022-11-02T03:55:37.542Z,11.95
2022-11-02T03:58:04.542Z,8.80
2022-11-02T04:00:35.898Z,12.07
2022-11-02T04:03:07.103Z,10.38
2022-11-02T04:05:38.111Z,16.73
2022-11-02T04:08:21.791Z,11.23
2022-11-02T04:11:16.784Z,10.18
2022-11-02T04:14:03.840Z,12.02
2022-11-02T04:16:35.134Z,11.77
2022-11-02T04:19:24.124Z,10.93
2022-11-02T04:22:18.226Z,11.55
2022-11-02T04:25:07.159Z,13.15
2022-11-02T04:27:35.377Z,21.67
2022-11-02T04:30:03.505Z,17.40
2022-11-02T04:33:01.572Z,10.50
2022-11-02T04:35:31.407Z,14.20
2022-11-02T04:38:17.060Z,15.90
2022-11-02T04:40:44.623Z,11.02
2022-11-02T04:43:11.087Z,14.23
2022-11-02T04:45:38.108Z,14.50
2022-11-02T04:48:08.376Z,13.27
2022-11-02T04:50:36.254Z,16.10
2022-11-02T04:53:03.843Z,10.57
2022-11-02T04:55:31.759Z,11.13
2022-11-02T04:57:59.081Z,12.18
2022-11-02T05:00:26.311Z,11.00
2022-11-02T05:02:53.459Z,9.35
2022-11-02T05:05:21.811Z,12.48
2022-11-02T05:07:50.489Z,17.52
2022-11-02T05:10:17.568Z,22.58
2022-11-02T05:12:45.709Z,17.90
2022-11-02T05:15:13.130Z,14.13
2022-11-02T05:17:39.488Z,16.02
2022-11-02T05:20:07.078Z,15.50
2022-11-02T05:22:33.473Z,16.73
2022-11-02T05:24:59.798Z,11.27
2022-11-02T05:27:27.090Z,10.63
2022-11-02T05:29:53.388Z,13.45
2022-11-02T05:32:19.728Z,15.63
2022-11-02T05:34:46.828Z,16.83
2022-11-02T05:37:14.081Z,12.77
2022-11-02T05:39:40.374Z,18.08
2022-11-02T05:42:06.753Z,13.75
2022-11-02T05:44:33.137Z,17.02
2022-11-02T05:46:59.736Z,18.25
2022-11-02T05:49:26.051Z,16.10
2022-11-02T05:51:52.367Z,13.95
2022-11-02T05:54:18.854Z,13.45
2022-11-02T05:56:45.180Z,12.57
2022-11-02T05:59:11.515Z,16.98
2022-11-02T06:01:37.831Z,14.02
2022-11-02T06:04:04.389Z,16.65
2022-11-02T06:06:30.980Z,12.05
2022-11-02T06:08:57.521Z,15.57
2022-11-02T06:11:25.205Z,13.70
2022-11-02T06:13:51.618Z,14.23
2022-11-02T06:16:22.772Z,12.88
2022-11-02T06:18:49.470Z,18.85
2022-11-02T06:21:15.870Z,22.67
2022-11-02T06:23:43.110Z,14.07
2022-11-02T06:26:09.519Z,14.57
2022-11-02T06:28:35.787Z,18.88
2022-11-02T06:31:02.363Z,12.57
2022-11-02T06:33:29.737Z,22.20
2022-11-02T06:35:56.072Z,14.45
2022-11-02T06:38:24.697Z,19.30
2022-11-02T06:40:54.982Z,15.23
2022-11-02T06:43:21.512Z,20.83
2022-11-02T06:45:48.048Z,9.43
2022-11-02T06:48:14.344Z,19.80
2022-11-02T06:50:40.708Z,24.45
2022-11-02T06:53:07.430Z,18.00
2022-11-02T06:55:34.009Z,17.95
2022-11-02T06:58:00.394Z,20.30
2022-11-02T07:00:26.718Z,19.42
2022-11-02T07:03:00.107Z,18.20
2022-11-02T07:05:26.516Z,17.65
2022-11-02T07:07:53.448Z,16.35
2022-11-02T07:10:19.713Z,16.75
2022-11-02T07:12:45.975Z,17.48
2022-11-02T07:15:12.259Z,14.02
2022-11-02T07:17:41.563Z,13.32
2022-11-02T07:20:10.544Z,13.35
2022-11-02T07:22:37.439Z,14.60
2022-11-02T07:25:03.951Z,13.20
2022-11-02T07:27:30.270Z,13.88
2022-11-02T07:29:56.584Z,14.75
2022-11-02T07:32:22.839Z,20.48
2022-11-02T07:34:49.162Z,14.35
2022-11-02T07:37:15.443Z,6.82
2022-11-02T07:39:41.893Z,8.88
2022-11-02T07:42:08.243Z,8.95
2022-11-02T07:44:34.587Z,8.20
2022-11-02T07:47:01.498Z,11.75
2022-11-02T07:49:27.807Z,14.27
2022-11-02T07:51:55.479Z,11.98
2022-11-02T07:54:21.739Z,11.32
2022-11-02T07:56:48.071Z,14.02
2022-11-02T07:59:14.339Z,13.52
2022-11-02T08:01:40.682Z,7.50
2022-11-02T08:04:07.017Z,9.10
2022-11-02T08:06:34.249Z,9.40
2022-11-02T08:09:00.731Z,11.20
2022-11-02T08:11:26.990Z,8.95
2022-11-02T08:13:53.264Z,11.70
2022-11-02T08:16:19.611Z,7.40
2022-11-02T08:18:45.896Z,7.97
2022-11-02T08:21:12.220Z,7.10
2022-11-02T08:23:38.495Z,13.15
2022-11-02T08:26:04.856Z,8.18
2022-11-02T08:28:32.282Z,9.82
2022-11-02T08:30:58.954Z,11.50
2022-11-02T08:33:25.244Z,9.43
2022-11-02T08:35:53.052Z,12.13
2022-11-02T08:38:22.473Z,9.80
2022-11-02T08:40:49.643Z,8.77
2022-11-02T08:43:16.007Z,11.27
2022-11-02T08:46:13.367Z,8.45
2022-11-02T08:48:30.212Z,8.57
2022-11-02T08:50:56.519Z,8.52
2022-11-02T08:53:23.091Z,9.93
2022-11-02T08:55:49.524Z,8.25
2022-11-02T08:58:16.250Z,8.88
2022-11-02T09:00:42.742Z,10.88
2022-11-02T09:03:13.844Z,10.30
2022-11-02T09:05:44.835Z,13.88
2022-11-02T09:08:13.617Z,10.40
2022-11-02T09:10:40.487Z,10.02
2022-11-02T09:13:08.011Z,11.52
2022-11-02T09:15:36.261Z,10.65
2022-11-02T09:18:03.907Z,9.40
2022-11-02T09:20:31.191Z,8.77
2022-11-02T09:22:58.248Z,8.38
2022-11-02T09:25:25.183Z,11.90
2022-11-02T09:27:55.945Z,10.82
2022-11-02T09:30:23.238Z,10.75
2022-11-02T09:32:56.150Z,8.88
2022-11-02T09:35:23.280Z,7.45
2022-11-02T09:37:51.024Z,9.18
2022-11-02T09:40:22.565Z,11.77
2022-11-02T09:43:04.761Z,10.80
2022-11-02T09:45:36.639Z,8.05
2022-11-02T09:48:17.148Z,12.18
2022-11-02T09:50:46.215Z,9.70
2022-11-02T09:53:17.093Z,10.85
2022-11-02T09:55:46.872Z,9.27
2022-11-02T09:58:16.814Z,8.48
2022-11-02T10:00:45.482Z,8.25
2022-11-02T10:03:28.176Z,10.85
2022-11-02T10:06:06.739Z,6.85
2022-11-02T10:08:56.059Z,7.32
2022-11-02T10:11:41.460Z,11.27
2022-11-02T10:14:14.968Z,9.45
2022-11-02T10:16:55.265Z,12.77
2022-11-02T10:19:24.874Z,7.30
2022-11-02T10:21:56.463Z,8.65
2022-11-02T10:24:33.407Z,8.38
2022-11-02T10:27:01.089Z,10.38
2022-11-02T10:29:27.647Z,8.52
2022-11-02T10:31:54.196Z,7.28
2022-11-02T10:34:20.503Z,10.98
2022-11-02T10:36:58.938Z,8.43
2022-11-02T10:39:30.252Z,7.80
2022-11-02T10:42:05.027Z,6.60
2022-11-02T10:44:34.618Z,8.20
2022-11-02T10:47:00.925Z,7.15
2022-11-02T10:49:44.787Z,12.98
2022-11-02T10:52:13.851Z,8.57
2022-11-02T10:54:40.224Z,10.48
2022-11-02T10:57:14.689Z,10.95
2022-11-02T10:59:41.027Z,8.68
2022-11-02T11:02:11.730Z,8.80
2022-11-02T11:04:38.008Z,10.63
2022-11-02T11:07:06.191Z,9.15
2022-11-02T11:09:51.080Z,9.45
2022-11-02T11:12:22.124Z,9.70
2022-11-02T11:20:32.997Z,12.82
2022-11-02T11:23:15.360Z,15.50
2022-11-02T11:25:41.966Z,9.95
2022-11-02T11:28:21.831Z,9.05
2022-11-02T11:31:05.854Z,13.88
2022-11-02T11:33:33.490Z,12.25
2022-11-02T11:36:00.124Z,5.30
2022-11-02T11:38:27.233Z,9.05
2022-11-02T11:40:54.940Z,7.00
2022-11-02T11:43:30.214Z,7.32
2022-11-02T11:46:03.720Z,9.27
2022-11-02T11:48:35.210Z,7.53
2022-11-02T11:51:02.515Z,9.38
2022-11-02T11:53:29.129Z,13.13
2022-11-02T11:55:58.154Z,8.30
2022-11-02T11:58:25.477Z,10.20
2022-11-02T12:01:15.315Z,20.70
2022-11-02T12:03:53.029Z,7.35
2022-11-02T12:06:38.296Z,10.43
2022-11-02T12:09:16.838Z,6.88
2022-11-02T12:12:00.480Z,8.95
2022-11-02T12:14:39.013Z,5.78
2022-11-02T12:17:06.499Z,8.77
2022-11-02T12:19:43.095Z,7.18
2022-11-02T12:22:22.207Z,9.30
2022-11-02T12:25:03.975Z,11.95
2022-11-02T12:27:41.449Z,9.13
2022-11-02T12:30:11.972Z,6.80
2022-11-02T12:32:57.212Z,9.00
2022-11-02T12:35:32.854Z,12.27
2022-11-02T12:38:17.926Z,6.00
2022-11-02T12:40:44.333Z,8.75
2022-11-02T12:43:22.519Z,7.38
2022-11-02T12:46:04.161Z,7.97
2022-11-02T12:48:43.007Z,8.25
2022-11-02T12:51:14.583Z,8.30
2022-11-02T12:53:40.875Z,6.13
2022-11-02T12:56:10.327Z,10.73
2022-11-02T12:58:38.585Z,8.15
2022-11-02T13:01:13.895Z,7.97
2022-11-02T13:03:43.390Z,3.00
2022-11-02T13:06:11.791Z,4.88
2022-11-02T13:08:56.440Z,4.97
2022-11-02T13:11:25.481Z,6.28
2022-11-02T13:13:55.758Z,5.90
2022-11-02T13:16:25.859Z,7.55
2022-11-02T13:18:53.275Z,5.60
2022-11-02T13:21:27.496Z,7.85
2022-11-02T13:23:56.485Z,7.07
2022-11-02T13:26:28.198Z,5.32
2022-11-02T13:29:02.065Z,4.22
2022-11-02T13:31:30.664Z,7.72
2022-11-02T13:34:00.114Z,6.03
2022-11-02T13:36:26.577Z,6.60
2022-11-02T13:38:52.823Z,10.23
2022-11-02T13:41:19.996Z,9.75
2022-11-02T13:43:51.456Z,7.40
2022-11-02T13:46:33.107Z,8.65
2022-11-02T13:48:59.436Z,5.75
2022-11-02T13:51:30.812Z,6.90
2022-11-02T13:54:03.253Z,6.28
2022-11-02T13:56:29.951Z,6.18
2022-11-02T13:59:04.249Z,5.95
2022-11-02T14:01:32.082Z,8.38
2022-11-02T14:04:03.837Z,6.82
2022-11-02T14:06:31.918Z,7.80
2022-11-02T14:09:00.563Z,7.85
2022-11-02T14:11:32.550Z,7.90
2022-11-02T14:14:11.085Z,11.07
2022-11-02T14:16:45.174Z,6.38
2022-11-02T14:21:40.057Z,11.23
2022-11-02T14:24:26.280Z,9.38
2022-11-02T14:26:54.160Z,8.63
2022-11-02T14:29:39.853Z,9.48
2022-11-02T14:32:19.735Z,8.18
2022-11-02T14:35:04.861Z,8.57
2022-11-02T14:37:48.643Z,7.75
2022-11-02T14:40:33.744Z,5.88
2022-11-02T14:43:16.810Z,6.57
2022-11-02T14:45:43.110Z,7.07
2022-11-02T14:48:19.007Z,11.23
2022-11-02T14:51:02.017Z,10.13
2022-11-02T14:53:29.377Z,6.95
2022-11-02T14:55:56.328Z,8.65
2022-11-02T14:58:37.679Z,8.20
2022-11-02T15:01:04.537Z,9.30
2022-11-02T15:03:35.882Z,9.23
2022-11-02T15:06:07.768Z,10.60
2022-11-02T15:08:36.119Z,10.77
2022-11-02T15:11:21.190Z,10.55
2022-11-02T15:13:48.060Z,7.35
2022-11-02T15:16:15.104Z,6.40
2022-11-02T15:18:41.567Z,8.82
2022-11-02T15:21:10.688Z,9.75
2022-11-02T15:23:43.250Z,12.85
2022-11-02T15:26:14.274Z,13.30
2022-11-02T15:28:43.234Z,7.25
2022-11-02T15:31:16.018Z,10.70
2022-11-02T15:33:43.764Z,6.65
2022-11-02T15:36:16.658Z,9.30
2022-11-02T15:38:46.370Z,9.57
2022-11-02T15:41:27.759Z,5.47
2022-11-02T15:44:06.428Z,9.25
2022-11-02T15:46:47.971Z,6.90
2022-11-02T15:49:14.227Z,6.63
2022-11-02T15:52:03.902Z,12.95
2022-11-02T15:54:36.187Z,6.15
2022-11-02T15:57:02.463Z,9.18
2022-11-02T15:59:41.630Z,10.68
2022-11-02T16:02:12.257Z,11.70
2022-11-02T16:04:38.786Z,7.15
2022-11-02T16:07:06.812Z,10.90
2022-11-02T16:09:34.570Z,7.72
2022-11-02T16:12:04.012Z,8.65
2022-11-02T16:14:31.530Z,12.48
2022-11-02T16:16:57.892Z,9.93
2022-11-02T16:19:24.226Z,13.95
2022-11-02T16:21:50.639Z,5.97
2022-11-02T16:24:17.286Z,7.53
2022-11-02T16:26:44.774Z,9.18
2022-11-02T16:29:11.810Z,12.73
2022-11-02T16:31:40.374Z,5.35
2022-11-02T16:34:24.141Z,6.53
2022-11-02T16:36:50.630Z,9.23
2022-11-02T16:39:31.813Z,10.27
2022-11-02T16:41:59.075Z,12.18
2022-11-02T16:44:29.767Z,13.73
2022-11-02T16:47:09.381Z,6.47
2022-11-02T16:49:56.353Z,12.13
2022-11-02T16:52:26.844Z,11.93
2022-11-02T16:54:53.159Z,7.68
2022-11-02T16:57:21.387Z,10.00
2022-11-02T16:59:50.801Z,10.07
2022-11-02T17:02:17.566Z,9.48
2022-11-02T17:04:45.187Z,7.65
2022-11-02T17:07:17.793Z,7.78
2022-11-02T17:09:44.135Z,12.73
2022-11-02T17:12:14.423Z,10.57
2022-11-02T17:14:42.633Z,17.52
2022-11-02T17:17:28.927Z,12.90
2022-11-02T17:19:56.531Z,9.18
2022-11-02T17:22:24.782Z,11.30
2022-11-02T17:25:11.335Z,5.85
2022-11-02T17:27:42.119Z,11.35
2022-11-02T17:30:29.167Z,12.23
2022-11-02T17:32:58.933Z,10.88
2022-11-02T17:35:27.378Z,11.18
2022-11-02T17:37:53.950Z,15.45
2022-11-02T17:40:21.699Z,15.45
2022-11-02T17:43:00.683Z,13.10
2022-11-02T17:45:28.561Z,14.10
2022-11-02T17:47:55.834Z,14.82
2022-11-02T17:50:22.574Z,15.63
2022-11-02T17:52:48.997Z,14.90
2022-11-02T17:55:16.635Z,15.15
2022-11-02T17:57:43.052Z,19.15
2022-11-02T18:00:09.589Z,12.75
2022-11-02T18:02:38.588Z,12.65
2022-11-02T18:05:10.870Z,11.93
2022-11-02T18:07:37.118Z,11.50
2022-11-02T18:10:03.512Z,13.75
2022-11-02T18:12:29.764Z,11.43
2022-11-02T18:14:56.046Z,14.88
2022-11-02T18:17:22.304Z,19.75
2022-11-02T18:19:48.588Z,16.98
2022-11-02T18:22:15.465Z,16.10
2022-11-02T18:24:41.818Z,13.90
2022-11-02T18:27:08.094Z,15.90
2022-11-02T18:29:34.420Z,17.80
2022-11-02T18:32:00.695Z,14.50
2022-11-02T18:34:27.252Z,13.10
2022-11-02T18:36:53.548Z,15.80
2022-11-02T18:39:19.823Z,16.05
2022-11-02T18:41:46.202Z,19.15
2022-11-02T18:44:15.608Z,17.58
2022-11-02T18:46:42.346Z,17.10
2022-11-02T18:49:08.823Z,14.88
2022-11-02T18:51:35.159Z,14.27
2022-11-02T18:54:02.688Z,17.67
2022-11-02T18:56:29.284Z,21.60
2022-11-02T18:58:56.241Z,24.88
2022-11-02T19:01:23.410Z,16.38
2022-11-02T19:03:53.936Z,19.35
2022-11-02T19:06:38.965Z,17.25
2022-11-02T19:09:18.276Z,20.75
2022-11-02T19:11:45.879Z,13.73
2022-11-02T19:14:12.270Z,9.50
2022-11-02T19:16:38.556Z,11.98
2022-11-02T19:19:04.904Z,15.40
2022-11-02T19:21:31.196Z,16.13
2022-11-02T19:23:57.467Z,18.40
2022-11-02T19:28:55.070Z,14.85
2022-11-02T19:31:21.756Z,13.13
2022-11-02T19:33:48.615Z,16.80
2022-11-02T19:36:15.152Z,19.85
2022-11-02T19:38:41.432Z,18.17
2022-11-02T19:41:11.837Z,15.30
2022-11-02T19:43:38.795Z,16.95
2022-11-02T19:46:06.006Z,18.25
2022-11-02T19:48:33.208Z,14.65
2022-11-02T19:51:06.557Z,21.67
2022-11-02T19:53:32.972Z,15.10
2022-11-02T19:55:59.243Z,18.95
2022-11-02T19:58:26.189Z,17.08
2022-11-02T20:00:52.473Z,17.88
2022-11-02T20:03:18.869Z,13.00
2022-11-02T20:05:47.381Z,19.65
2022-11-02T20:08:14.513Z,14.13
2022-11-02T20:10:41.476Z,12.93
2022-11-02T20:13:08.036Z,14.85
2022-11-02T20:15:39.530Z,16.25
2022-11-02T20:18:18.790Z,11.35
2022-11-02T20:20:46.103Z,15.60
2022-11-02T20:23:13.023Z,12.57
2022-11-02T20:25:39.340Z,14.50
2022-11-02T20:28:05.878Z,17.85
2022-11-02T20:30:32.517Z,17.77
2022-11-02T20:32:58.799Z,20.30
2022-11-02T20:35:25.839Z,20.50
2022-11-02T20:37:53.331Z,12.43
2022-11-02T20:40:19.664Z,15.63
2022-11-02T20:42:47.750Z,16.00
2022-11-02T20:45:16.106Z,12.60
2022-11-02T20:47:42.471Z,9.23
2022-11-02T20:50:12.855Z,19.50
2022-11-02T20:52:43.899Z,18.55
2022-11-02T20:55:10.274Z,24.80
2022-11-02T20:57:37.769Z,40.65
2022-11-02T21:00:04.777Z,26.75
2022-11-02T21:02:31.125Z,20.20
2022-11-02T21:04:57.523Z,17.80
2022-11-02T21:07:23.786Z,17.50
2022-11-02T21:09:50.133Z,16.33
2022-11-02T21:12:35.166Z,16.83
2022-11-02T21:15:02.110Z,14.55
2022-11-02T21:17:28.416Z,12.95
2022-11-02T21:19:58.384Z,10.32
2022-11-02T21:22:34.379Z,12.93
2022-11-02T21:25:00.722Z,9.43
2022-11-02T21:27:27.181Z,11.82
2022-11-02T21:29:53.461Z,16.80
2022-11-02T21:32:19.717Z,12.27
2022-11-02T21:34:45.984Z,15.68
2022-11-02T21:37:12.268Z,13.73
2022-11-02T21:39:39.588Z,9.57
2022-11-02T21:42:05.912Z,14.98
2022-11-02T21:44:32.235Z,19.95
2022-11-02T21:46:58.501Z,10.85
2022-11-02T21:49:24.853Z,14.90
2022-11-02T21:51:51.151Z,9.73
2022-11-02T21:54:17.410Z,14.55
2022-11-02T21:56:43.737Z,16.30
2022-11-02T21:59:10.114Z,12.88
2022-11-02T22:01:46.886Z,12.98
2022-11-02T22:04:31.815Z,12.40
2022-11-02T22:06:59.338Z,11.38
2022-11-02T22:09:26.020Z,11.23
2022-11-02T22:12:10.941Z,14.00
2022-11-02T22:14:37.793Z,10.73
2022-11-02T22:17:16.010Z,12.38
2022-11-02T22:19:50.798Z,13.80
2022-11-02T22:22:17.397Z,13.65
2022-11-02T22:24:45.062Z,13.93
2022-11-02T22:27:11.630Z,12.18
2022-11-02T22:29:37.930Z,11.35
2022-11-02T22:32:04.495Z,13.50
2022-11-02T22:34:31.007Z,12.20
2022-11-02T22:37:17.259Z,16.63
2022-11-02T22:39:43.675Z,13.60
2022-11-02T22:42:09.983Z,14.55
2022-11-02T22:44:36.264Z,11.15
2022-11-02T22:47:02.539Z,14.15
2022-11-02T22:49:28.817Z,16.05
2022-11-02T22:51:55.120Z,15.40
2022-11-02T22:54:21.386Z,14.25
2022-11-02T22:56:48.525Z,13.60
2022-11-02T22:59:15.042Z,17.92
2022-11-02T23:01:42.053Z,15.57
2022-11-02T23:04:09.859Z,11.95
2022-11-02T23:06:36.207Z,11.65
2022-11-02T23:09:02.708Z,13.75
2022-11-02T23:11:30.645Z,9.65
2022-11-02T23:14:02.164Z,11.07
2022-11-02T23:16:35.628Z,10.27
2022-11-02T23:19:28.920Z,10.70
2022-11-02T23:22:22.035Z,12.50
2022-11-02T23:25:06.979Z,13.43
2022-11-02T23:27:34.620Z,14.23
2022-11-02T23:30:19.694Z,14.02
2022-11-02T23:32:46.024Z,13.60
2022-11-02T23:35:30.965Z,16.00
2022-11-02T23:38:02.161Z,17.85
2022-11-02T23:40:28.479Z,12.45
2022-11-02T23:42:54.811Z,9.30
2022-11-02T23:45:21.086Z,15.73
2022-11-02T23:48:02.774Z,10.13
2022-11-02T23:50:48.827Z,13.25
2022-11-02T23:53:35.012Z,11.75
2022-11-02T23:56:20.150Z,14.05
2022-11-02T23:58:46.586Z,15.20
